CFX6 weather

Vulcan Airport
Vulcan, Alberta, Canada

Public forecast

Using degrees Celsius for public forecast. Weather courtesy of forecast.io.

Closest aviation weather report (METAR) to Vulcan Airport

Closest report is Lethbridge County Airport, 50.1 nm (92.8 km) SSE. Retrieved 2020/04/04 12:00 UTC (14 minutes ago):

CYQL 041200Z 31007KT 12SM -SN SCT011 OVC018 M08/M10 A2985 RMK SC4SC4 SLP162

Closest aviation forecast (TAF) to Vulcan Airport

Closest forecast is Lethbridge County Airport, 50.1 nm (92.8 km) SSE. Retrieved 2020/04/04 12:42 UTC (0 seconds ago):

TAF CYQL 041138Z 0412/0424 32010KT P6SM -SN OVC012 TEMPO 0412/0416 P6SM NSW OVC007 FM041600 30015KT P6SM BKN015 TEMPO 0416/0424 BKN025 RMK FCST BASED ON AUTO OBS NXT FCST BY 041800Z